Airfield :
LOGIN :

Register | Disclaimer

   EN    FR    IT 

 










Legend :    VFR   Marginal VFR   IFR   Intensive IFR   Very Intensive IFR
Visi :
Ceiling :
>= 8 km
>= 3000ft
5 to 8 km
1000 to 3000 ft
1500m to 5 km
500 to 1000 ft
800 to 1500m
200 to 500 ft
< 800m
< 200 ft
Symbols :   Thunderstorms  Fog  Heavy snow  Heavy precipitations  Wind > 20 kt
SIGMETs :     Misc.  Thunderstorms  Icing  Turbulence  Mountain Waves  Volcanic Ashes






- Airport Elevation : 197 ft
- IATA code : XOG


LFMO - Orange

CURRENT METAR :
  • 101830Z AUTO 14010KT 9999 OVC044 12/06 Q1015 NOSIG

EXPIRED METARs :
  • 101800Z AUTO 14005KT 9999 OVC048 12/06 Q1015 NOSIG
  • 101730Z AUTO 15007KT 120V180 9999 OVC052 13/05 Q1016 NOSIG
  • 101700Z AUTO 15010KT 9999 OVC046 14/05 Q1016 NOSIG
  • 101630Z AUTO 15007KT 9999 OVC048 14/03 Q1016 NOSIG
  • 101600Z AUTO 00000KT 9999 OVC050 13/05 Q1016 NOSIG

TAF TAF LFMO
Valid from the 10 at 15:00 until the 11 at 15:00 UTC


101400Z 1015/1115 VRB02KT 9999 OVC045 TX16/1112Z TN07/1106Z
BECMG 1110/1112 17010KT
TEMPO 1112/1115 4000 RA BKN010



MET'MAP, your aeronautical weather chart ! - Copyright ORBIFLY December 2007 - Disclaimer

ORBIFLY MET'MAP TEAM :

Programming & Development : Alexandra Zaïnal
Concept & original design : Baudouin d'Aumeries
Assistance for programming : Marc-Olivier Méhu
Technical & hardware support : Manuel Goepfert

Contact : metmap@orbifly.com




SOURCES & CREDITS :

   NOAA